Time;durP1;ratioP1;P1;durP2;ratioP2;P2;SDS_P1;SDS_P2;PMS_P1;PMS_P2;Temp;Humidity;BMP_temperature;BMP_pressure;BME280_temperature;BME280_humidity;BME280_pressure;Samples;Min_cycle;Max_cycle;Signal;HPM_P1;HPM_P2
2022/04/04 00:01:42;;;;;;;3.95;2.30;;;;;;;3.38;60.95;94843.63;5021402;28;20583;-71
2022/04/04 00:04:09;;;;;;;6.97;2.58;;;;;;;3.37;62.58;94852.72;5019477;28;20796;-73
2022/04/04 00:06:36;;;;;;;6.72;2.97;;;;;;;3.31;61.92;94848.47;5023079;28;20216;-72
2022/04/04 00:09:03;;;;;;;4.28;2.30;;;;;;;3.31;62.98;94856.50;5028707;28;20606;-72
2022/04/04 00:11:31;;;;;;;3.35;2.47;;;;;;;3.32;62.30;94852.75;5032233;28;20255;-73
2022/04/04 00:14:00;;;;;;;6.15;2.40;;;;;;;3.40;62.79;94857.53;5019279;28;20215;-72
2022/04/04 00:16:26;;;;;;;2.58;2.13;;;;;;;3.22;62.17;94855.50;5023027;28;20204;-74
2022/04/04 00:18:55;;;;;;;4.80;2.50;;;;;;;3.33;62.28;94851.69;5025681;28;20576;-72
2022/04/04 00:21:22;;;;;;;3.92;1.92;;;;;;;3.28;61.88;94858.94;5023070;28;20223;-71
2022/04/04 00:23:48;;;;;;;5.00;2.28;;;;;;;2.99;63.16;94861.50;5017859;28;20233;-72
2022/04/04 00:26:15;;;;;;;4.47;2.58;;;;;;;2.99;63.27;94861.50;5022792;28;20208;-72
2022/04/04 00:28:43;;;;;;;3.80;2.33;;;;;;;3.03;62.79;94860.66;5018970;28;20201;-74
2022/04/04 00:31:09;;;;;;;4.07;2.38;;;;;;;3.05;63.70;94858.50;5021658;28;20231;-74
2022/04/04 00:33:38;;;;;;;2.08;1.60;;;;;;;3.08;63.34;94859.84;5026144;28;20201;-73
2022/04/04 00:36:08;;;;;;;5.07;2.47;;;;;;;3.05;63.68;94860.38;5023220;28;20203;-73
2022/04/04 00:38:36;;;;;;;3.17;2.33;;;;;;;3.08;64.15;94860.63;5019560;28;20262;-73
2022/04/04 00:41:08;;;;;;;9.43;3.15;;;;;;;3.10;64.22;94860.38;5019229;28;20211;-73
2022/04/04 00:43:35;;;;;;;4.45;2.35;;;;;;;3.07;64.34;94859.03;5025132;28;20686;-73
2022/04/04 00:46:02;;;;;;;5.00;2.75;;;;;;;3.05;64.70;94860.38;5025462;28;20286;-73
2022/04/04 00:48:29;;;;;;;3.60;2.10;;;;;;;3.05;64.48;94865.72;5019323;28;20208;-73
2022/04/04 00:50:56;;;;;;;1.77;1.27;;;;;;;3.00;63.91;94869.25;5018896;28;20227;-73
2022/04/04 00:53:26;;;;;;;2.90;1.88;;;;;;;3.09;64.65;94864.13;5025095;28;20301;-73
2022/04/04 00:55:52;;;;;;;5.32;2.95;;;;;;;3.01;63.66;94864.66;5025191;28;20667;-73
2022/04/04 00:58:20;;;;;;;2.38;1.75;;;;;;;2.94;63.45;94864.19;5019566;28;20208;-73
2022/04/04 01:00:49;;;;;;;5.70;2.75;;;;;;;2.95;64.02;94871.13;5018652;28;20219;-73
2022/04/04 01:03:16;;;;;;;4.63;2.53;;;;;;;2.91;63.92;94872.75;5022737;28;20228;-73
2022/04/04 01:05:44;;;;;;;4.10;2.55;;;;;;;2.92;63.99;94871.66;5024580;28;20259;-74
2022/04/04 01:08:12;;;;;;;2.33;1.67;;;;;;;2.90;63.76;94863.13;5020881;28;20251;-72
2022/04/04 01:10:42;;;;;;;4.15;2.30;;;;;;;2.90;64.56;94865.78;5017257;28;20205;-73
2022/04/04 01:13:10;;;;;;;4.38;2.35;;;;;;;2.93;63.80;94867.94;5021315;28;20291;-73
2022/04/04 01:15:37;;;;;;;3.38;2.42;;;;;;;3.00;64.34;94871.13;5024036;28;20209;-73
2022/04/04 01:18:05;;;;;;;3.47;2.25;;;;;;;3.06;63.12;94862.78;5011414;28;20201;-72
2022/04/04 01:20:32;;;;;;;8.82;2.33;;;;;;;2.93;64.13;94863.38;5024975;28;20208;-74
2022/04/04 01:23:00;;;;;;;2.35;1.42;;;;;;;2.78;63.25;94861.56;5021908;28;20263;-72
2022/04/04 01:25:29;;;;;;;2.38;1.90;;;;;;;2.78;63.29;94856.22;5025050;28;20196;-73
2022/04/04 01:27:57;;;;;;;3.47;1.98;;;;;;;2.78;63.94;94861.56;5022470;28;20314;-73
2022/04/04 01:30:25;;;;;;;2.72;1.92;;;;;;;2.76;64.79;94857.53;5017793;28;20209;-73
2022/04/04 01:32:52;;;;;;;6.28;2.90;;;;;;;2.75;65.05;94854.06;5020150;28;20291;-73
2022/04/04 01:35:21;;;;;;;2.55;2.20;;;;;;;2.68;64.91;94853.56;5024639;28;20208;-74
2022/04/04 01:37:49;;;;;;;3.20;2.35;;;;;;;2.68;64.88;94852.78;5022952;28;20250;-73
2022/04/04 01:40:16;;;;;;;6.75;3.22;;;;;;;2.54;64.88;94852.53;5018268;28;20204;-73
2022/04/04 01:42:47;;;;;;;3.38;2.58;;;;;;;2.48;65.47;94858.97;5018274;28;20315;-73
2022/04/04 01:45:18;;;;;;;1.75;1.55;;;;;;;2.35;65.55;94863.00;5017462;28;20243;-71
2022/04/04 01:47:45;;;;;;;5.13;2.85;;;;;;;2.30;66.06;94873.72;5017684;28;20221;-71
2022/04/04 01:50:12;;;;;;;3.20;1.98;;;;;;;2.29;66.05;94868.63;5023990;28;20207;-73
2022/04/04 01:52:39;;;;;;;2.13;1.90;;;;;;;2.29;65.99;94869.44;5024576;28;20266;-71
2022/04/04 01:55:10;;;;;;;1.35;1.08;;;;;;;2.35;65.17;94862.19;5018888;28;20625;-74
2022/04/04 01:57:38;;;;;;;3.38;2.13;;;;;;;2.38;65.52;94867.00;5017890;28;20251;-71
2022/04/04 02:00:07;;;;;;;1.45;0.90;;;;;;;2.41;66.05;94869.16;5022263;28;20292;-74
2022/04/04 02:02:34;;;;;;;5.28;4.55;;;;;;;2.37;65.68;94866.22;5024407;28;20614;-74
2022/04/04 02:05:01;;;;;;;7.22;4.65;;;;;;;2.44;65.37;94876.63;5020746;28;20236;-75
2022/04/04 02:07:28;;;;;;;5.38;4.00;;;;;;;2.49;64.27;94873.94;5017535;28;20240;-71
2022/04/04 02:09:58;;;;;;;3.22;2.42;;;;;;;2.59;65.15;94876.59;5030739;28;20196;-72
2022/04/04 02:12:25;;;;;;;3.22;2.30;;;;;;;2.56;64.57;94869.13;5027179;28;20747;-74
2022/04/04 02:14:52;;;;;;;2.88;1.95;;;;;;;2.60;64.46;94864.81;5021081;28;20200;-71
2022/04/04 02:17:22;;;;;;;3.13;2.25;;;;;;;2.62;64.59;94859.19;5017194;28;20204;-73
2022/04/04 02:19:51;;;;;;;1.65;1.40;;;;;;;2.61;63.82;94842.34;5020210;28;20602;-73
2022/04/04 02:22:17;;;;;;;1.85;1.30;;;;;;;2.63;63.37;94847.44;5025682;28;20200;-72
2022/04/04 02:24:44;;;;;;;2.03;1.75;;;;;;;2.59;63.41;94857.88;5025547;28;20285;-72
2022/04/04 02:27:11;;;;;;;2.15;1.55;;;;;;;2.58;63.62;94850.13;5021059;28;20200;-72
2022/04/04 02:29:40;;;;;;;3.85;2.33;;;;;;;2.59;63.82;94846.41;5023991;28;20203;-73
2022/04/04 02:32:08;;;;;;;2.20;1.58;;;;;;;2.58;63.55;94856.28;5027878;28;20201;-72
2022/04/04 02:34:36;;;;;;;3.20;1.95;;;;;;;2.62;63.36;94857.31;5025929;28;20207;-74
2022/04/04 02:37:03;;;;;;;2.38;1.98;;;;;;;2.76;63.48;94846.84;5021237;28;20204;-73
2022/04/04 02:39:30;;;;;;;2.15;1.52;;;;;;;2.75;63.21;94840.69;5022776;28;20676;-74
2022/04/04 02:41:59;;;;;;;0.98;0.70;;;;;;;2.71;62.89;94839.66;5027317;28;20247;-72
2022/04/04 02:44:27;;;;;;;3.15;1.95;;;;;;;2.55;63.80;94835.44;5026595;28;20240;-73
2022/04/04 02:46:54;;;;;;;5.10;3.00;;;;;;;2.48;63.92;94845.59;5014639;28;20201;-74
2022/04/04 02:49:21;;;;;;;3.92;2.88;;;;;;;2.53;64.61;94832.22;5027235;28;20200;-74
2022/04/04 02:51:49;;;;;;;3.78;1.92;;;;;;;2.46;64.24;94831.72;5020613;28;20611;-72
2022/04/04 02:54:16;;;;;;;4.25;2.53;;;;;;;2.41;64.70;94834.41;5020809;28;20208;-73
2022/04/04 02:56:42;;;;;;;5.55;3.08;;;;;;;2.30;65.40;94838.97;5021311;28;20223;-73
2022/04/04 02:59:10;;;;;;;7.53;3.28;;;;;;;2.27;65.80;94844.06;5021235;28;20915;-74
2022/04/04 03:01:41;;;;;;;2.05;1.45;;;;;;;2.35;65.50;94828.25;5025755;28;20205;-73
2022/04/04 03:04:08;;;;;;;4.20;2.65;;;;;;;2.38;65.49;94834.94;5026905;28;20234;-72
2022/04/04 03:06:36;;;;;;;4.35;2.22;;;;;;;2.27;65.54;94828.00;5021375;28;20232;-72
2022/04/04 03:09:04;;;;;;;6.70;4.07;;;;;;;2.22;65.75;94825.34;5022050;28;20237;-72
2022/04/04 03:11:31;;;;;;;4.05;2.25;;;;;;;2.19;65.98;94842.72;5024259;28;20213;-74
2022/04/04 03:13:58;;;;;;;3.17;2.65;;;;;;;2.18;65.97;94840.34;5027701;28;20616;-72
2022/04/04 03:16:25;;;;;;;3.97;1.90;;;;;;;2.17;66.23;94839.53;5023203;28;20208;-73
2022/04/04 03:18:54;;;;;;;3.53;2.42;;;;;;;2.18;66.39;94840.34;5019569;28;20235;-74
2022/04/04 03:21:21;;;;;;;3.60;1.90;;;;;;;2.18;65.84;94845.69;5022981;28;20223;-73
2022/04/04 03:23:48;;;;;;;4.40;2.58;;;;;;;2.14;65.98;94843.53;5029913;28;21054;-73
2022/04/04 03:26:16;;;;;;;6.03;3.97;;;;;;;2.06;66.62;94854.75;5024004;28;20216;-73
2022/04/04 03:28:47;;;;;;;3.08;2.25;;;;;;;2.05;66.44;94852.38;5026943;28;20227;-71
2022/04/04 03:31:14;;;;;;;3.67;1.98;;;;;;;1.91;66.63;94854.78;5023821;28;20722;-73
2022/04/04 03:33:40;;;;;;;4.82;2.45;;;;;;;1.92;66.40;94864.38;5018621;28;20541;-71
2022/04/04 03:36:07;;;;;;;3.65;2.65;;;;;;;1.88;67.19;94866.00;5021778;28;20292;-72
2022/04/04 03:38:34;;;;;;;3.47;2.30;;;;;;;1.87;67.15;94864.38;5026560;28;20271;-72
2022/04/04 03:41:01;;;;;;;4.78;2.90;;;;;;;1.88;67.39;94866.00;5013569;28;20664;-72
2022/04/04 03:43:30;;;;;;;5.30;3.75;;;;;;;1.86;67.10;94854.78;5026667;28;20619;-74
2022/04/04 03:45:56;;;;;;;3.55;2.42;;;;;;;1.89;66.46;94869.47;5024463;28;20193;-75
2022/04/04 03:48:23;;;;;;;3.58;2.17;;;;;;;1.87;67.16;94867.06;5018632;28;20659;-74
2022/04/04 03:50:54;;;;;;;9.70;7.35;;;;;;;1.84;67.42;94867.59;5021157;28;20747;-73
2022/04/04 03:53:22;;;;;;;12.98;7.45;;;;;;;1.99;67.54;94877.47;5026685;28;20616;-73
2022/04/04 03:55:50;;;;;;;10.00;6.95;;;;;;;2.06;66.43;94884.13;5025313;28;20290;-72
2022/04/04 03:58:17;;;;;;;10.30;7.10;;;;;;;2.13;66.76;94882.00;5019622;28;20278;-74
2022/04/04 04:00:45;;;;;;;11.13;7.43;;;;;;;2.21;66.60;94886.00;5019812;28;20707;-73
2022/04/04 04:03:12;;;;;;;12.27;7.78;;;;;;;2.33;65.52;94891.06;5025742;28;20672;-72
2022/04/04 04:05:39;;;;;;;9.43;7.20;;;;;;;2.27;65.76;94897.50;5025992;28;20633;-71
2022/04/04 04:08:07;;;;;;;6.25;3.85;;;;;;;2.21;64.93;94877.97;5017908;28;20430;-71
2022/04/04 04:10:34;;;;;;;5.03;2.58;;;;;;;2.32;65.09;94900.97;5032698;28;20610;-72
2022/04/04 04:13:05;;;;;;;10.07;6.00;;;;;;;2.38;64.64;94899.09;5024022;28;20201;-72
2022/04/04 04:15:32;;;;;;;1.50;1.40;;;;;;;2.33;65.01;94907.09;5026114;28;20202;-72
2022/04/04 04:18:00;;;;;;;7.70;3.42;;;;;;;2.31;64.82;94912.75;5021842;28;20204;-72
2022/04/04 04:20:31;;;;;;;3.45;2.17;;;;;;;2.33;64.99;94912.44;5018915;28;20227;-73
2022/04/04 04:23:00;;;;;;;6.32;3.25;;;;;;;2.42;64.75;94917.00;5032365;28;20211;-72
2022/04/04 04:25:29;;;;;;;3.30;2.42;;;;;;;2.44;63.89;94919.41;5018882;28;20235;-72
2022/04/04 04:27:57;;;;;;;8.57;3.55;;;;;;;2.46;63.71;94922.63;5021246;28;20573;-72
2022/04/04 04:30:24;;;;;;;5.88;3.35;;;;;;;2.49;64.26;94922.06;5030536;28;20613;-72
2022/04/04 04:32:54;;;;;;;5.15;3.28;;;;;;;2.46;64.06;94925.28;5031602;28;20208;-72
2022/04/04 04:35:23;;;;;;;9.60;3.20;;;;;;;2.45;63.32;94923.69;5031733;28;20236;-73
2022/04/04 04:37:51;;;;;;;5.45;3.60;;;;;;;2.59;63.97;94932.75;5019749;28;20314;-72
2022/04/04 04:40:19;;;;;;;3.50;2.78;;;;;;;2.59;63.67;94935.44;5011928;28;20646;-73
2022/04/04 04:42:47;;;;;;;3.25;2.35;;;;;;;2.53;63.22;94928.47;5012382;28;20216;-74
2022/04/04 04:45:14;;;;;;;6.05;3.85;;;;;;;2.65;63.32;94937.00;5011117;28;20256;-74
2022/04/04 04:47:42;;;;;;;6.03;3.58;;;;;;;2.72;63.58;94921.50;5012242;28;20599;-73
2022/04/04 04:50:10;;;;;;;3.70;2.80;;;;;;;2.70;62.30;94934.34;5018212;28;20208;-73
2022/04/04 04:52:38;;;;;;;4.20;3.35;;;;;;;2.70;63.08;94937.00;5031526;28;20299;-71
2022/04/04 04:55:06;;;;;;;8.77;4.63;;;;;;;2.85;63.06;94947.69;5031799;28;20221;-73
2022/04/04 04:57:34;;;;;;;5.22;3.42;;;;;;;2.92;62.83;94951.94;5031525;28;20205;-73
2022/04/04 05:00:03;;;;;;;5.57;2.30;;;;;;;2.88;62.34;94938.28;5031455;28;20243;-73
2022/04/04 05:02:30;;;;;;;3.25;2.08;;;;;;;2.69;63.61;94943.44;5031321;28;20250;-72
2022/04/04 05:04:57;;;;;;;6.50;3.55;;;;;;;2.76;63.31;94943.94;5031562;28;20244;-72
2022/04/04 05:07:24;;;;;;;4.15;2.70;;;;;;;2.54;63.78;94946.13;5031436;28;20621;-72
2022/04/04 05:09:52;;;;;;;3.42;2.38;;;;;;;2.56;64.00;94944.00;5031446;28;20260;-75
2022/04/04 05:12:19;;;;;;;3.70;2.85;;;;;;;2.63;63.70;94949.03;5014862;28;20219;-73
2022/04/04 05:14:47;;;;;;;8.32;3.85;;;;;;;2.64;64.19;94951.44;5010302;28;20212;-73
2022/04/04 05:17:14;;;;;;;11.90;3.03;;;;;;;2.82;63.81;94952.78;5011202;28;20263;-72
2022/04/04 05:19:40;;;;;;;8.30;3.13;;;;;;;2.69;63.69;94951.44;5011309;28;20205;-72
2022/04/04 05:22:07;;;;;;;5.65;3.50;;;;;;;2.67;64.25;94950.91;5010918;28;20657;-74
2022/04/04 05:24:35;;;;;;;6.00;2.20;;;;;;;2.66;64.43;94953.84;5023111;28;20278;-76
2022/04/04 05:27:03;;;;;;;4.15;2.88;;;;;;;2.85;64.29;94952.22;5014010;28;20213;-73
2022/04/04 05:29:30;;;;;;;4.90;3.58;;;;;;;2.71;64.23;94952.00;5011329;28;20209;-74
2022/04/04 05:31:57;;;;;;;7.85;4.47;;;;;;;2.79;65.22;94959.44;5011369;28;20609;-74
2022/04/04 05:34:26;;;;;;;6.07;2.80;;;;;;;2.64;65.68;94972.84;5022502;28;20208;-73
2022/04/04 05:36:54;;;;;;;14.55;4.28;;;;;;;2.78;65.43;94973.09;5025838;28;20231;-72
2022/04/04 05:39:21;;;;;;;7.53;4.05;;;;;;;2.79;65.60;94975.50;5011184;28;20220;-75
2022/04/04 05:41:48;;;;;;;5.28;3.22;;;;;;;2.79;65.75;94974.69;5011399;28;20209;-73
2022/04/04 05:44:18;;;;;;;4.43;2.30;;;;;;;2.80;65.26;94977.09;5010860;28;20241;-73
2022/04/04 05:46:46;;;;;;;4.50;2.97;;;;;;;2.75;65.49;94979.78;5011026;28;20310;-72
2022/04/04 05:49:13;;;;;;;9.07;4.43;;;;;;;2.91;66.26;94982.44;5011029;28;20663;-73
2022/04/04 05:51:39;;;;;;;2.88;2.35;;;;;;;3.09;64.78;94985.34;5010240;28;20266;-71
2022/04/04 05:54:06;;;;;;;5.00;3.67;;;;;;;2.76;65.84;94986.72;5023408;28;20196;-74
2022/04/04 05:56:34;;;;;;;7.28;4.78;;;;;;;2.79;66.44;94996.91;5024376;28;20561;-73
2022/04/04 05:59:01;;;;;;;8.00;4.50;;;;;;;2.88;66.37;94996.34;5024055;28;20256;-73
2022/04/04 06:01:29;;;;;;;6.60;4.20;;;;;;;3.12;65.25;95000.06;5018123;28;20208;-73
2022/04/04 06:03:57;;;;;;;6.07;3.70;;;;;;;3.28;65.44;95006.97;5017207;28;20205;-74
2022/04/04 06:06:24;;;;;;;4.47;2.50;;;;;;;3.56;63.48;95000.16;5016956;28;20228;-71
2022/04/04 06:08:51;;;;;;;6.50;3.63;;;;;;;3.69;63.16;94985.41;5017571;28;20228;-74
2022/04/04 06:11:18;;;;;;;3.13;2.35;;;;;;;3.72;63.60;94987.50;5022938;28;20201;-73
2022/04/04 06:13:45;;;;;;;13.45;5.97;;;;;;;4.43;62.76;94984.41;5021536;28;20460;-72
2022/04/04 06:16:12;;;;;;;5.53;4.28;;;;;;;4.45;60.96;94984.91;5016818;28;20205;-72
2022/04/04 06:18:40;;;;;;;11.98;5.00;;;;;;;5.77;58.08;94972.81;5020773;28;20216;-75
2022/04/04 06:21:07;;;;;;;3.72;2.83;;;;;;;5.55;57.72;94965.31;5010364;28;20208;-74
2022/04/04 06:23:34;;;;;;;11.80;5.32;;;;;;;5.54;58.72;94964.50;5013601;28;20541;-73
2022/04/04 06:26:01;;;;;;;5.65;3.80;;;;;;;5.40;57.72;94958.22;5029950;28;20232;-74
2022/04/04 06:28:31;;;;;;;8.70;5.65;;;;;;;5.59;58.55;94961.75;5016568;28;20205;-74
2022/04/04 06:30:58;;;;;;;6.47;4.60;;;;;;;6.23;57.00;94960.38;5029837;28;20299;-73
2022/04/04 06:33:26;;;;;;;8.45;5.18;;;;;;;7.25;53.93;94953.28;5030349;28;20547;-73
2022/04/04 06:35:54;;;;;;;8.73;3.85;;;;;;;6.64;54.42;94963.22;5029984;28;20262;-74
2022/04/04 06:38:21;;;;;;;8.63;5.63;;;;;;;6.55;55.57;94964.22;5029510;28;20211;-72
2022/04/04 06:40:49;;;;;;;7.63;4.68;;;;;;;6.96;54.63;94970.50;5029985;28;20657;-74
2022/04/04 06:43:17;;;;;;;6.20;4.07;;;;;;;5.68;57.05;94976.16;5030161;28;20270;-73
2022/04/04 06:45:44;;;;;;;3.33;1.60;;;;;;;5.30;58.01;94974.47;5029325;28;20333;-72
2022/04/04 06:48:11;;;;;;;10.85;5.45;;;;;;;6.61;57.24;94971.09;5030094;28;20212;-71
2022/04/04 06:50:38;;;;;;;9.00;5.40;;;;;;;7.96;52.82;94968.81;5029925;28;20212;-73
2022/04/04 06:53:06;;;;;;;7.53;5.40;;;;;;;8.38;50.37;94961.44;5029860;28;20212;-75
2022/04/04 06:55:33;;;;;;;8.35;4.38;;;;;;;8.96;48.92;94952.50;5029404;28;20626;-75
2022/04/04 06:58:00;;;;;;;9.68;6.45;;;;;;;8.40;49.65;94965.44;5027372;28;20208;-76
2022/04/04 07:00:27;;;;;;;8.77;4.95;;;;;;;7.64;51.70;94968.97;5029364;28;20204;-76
2022/04/04 07:02:55;;;;;;;4.63;2.90;;;;;;;6.98;52.88;94965.59;5029965;28;20232;-70
2022/04/04 07:05:22;;;;;;;13.32;6.82;;;;;;;7.23;53.10;94972.44;5029914;28;20236;-74
2022/04/04 07:07:49;;;;;;;8.93;5.22;;;;;;;7.93;51.26;94974.00;5029395;28;20236;-74
2022/04/04 07:10:17;;;;;;;11.80;5.90;;;;;;;9.07;49.31;94960.03;5032734;28;20212;-75
2022/04/04 07:12:44;;;;;;;8.10;4.55;;;;;;;7.34;51.05;94967.66;5013781;28;20208;-70
2022/04/04 07:15:12;;;;;;;11.05;6.75;;;;;;;7.92;51.50;94967.06;5013580;28;20217;-74
2022/04/04 07:17:39;;;;;;;8.02;5.38;;;;;;;8.10;51.74;94974.19;5013510;28;20216;-73
2022/04/04 07:20:08;;;;;;;11.95;6.40;;;;;;;8.89;49.33;94969.13;5013781;28;20236;-75
2022/04/04 07:22:35;;;;;;;7.97;5.07;;;;;;;8.69;48.36;94975.03;5013140;28;20213;-74
2022/04/04 07:25:03;;;;;;;9.00;5.18;;;;;;;8.55;49.57;94975.09;5028058;28;20264;-77
2022/04/04 07:27:31;;;;;;;6.70;4.13;;;;;;;8.61;49.52;94973.84;5013100;28;20209;-75
2022/04/04 07:29:58;;;;;;;10.20;6.13;;;;;;;8.55;49.25;94973.19;5013246;28;20206;-76
2022/04/04 07:32:26;;;;;;;7.85;5.05;;;;;;;8.06;49.54;94981.31;5012911;28;20216;-74
2022/04/04 07:34:52;;;;;;;9.63;6.03;;;;;;;9.53;48.42;94977.75;5013411;28;20209;-76
2022/04/04 07:37:20;;;;;;;8.55;5.50;;;;;;;10.57;44.75;94967.97;5013280;28;20211;-77
2022/04/04 07:39:47;;;;;;;6.82;3.80;;;;;;;9.46;45.73;94972.78;5019205;28;20683;-73
2022/04/04 07:42:14;;;;;;;4.15;3.25;;;;;;;7.93;49.55;94990.19;5024396;28;20299;-75
2022/04/04 07:44:42;;;;;;;11.38;6.10;;;;;;;7.41;52.27;94985.03;5032113;28;20232;-76
2022/04/04 07:47:09;;;;;;;8.75;5.80;;;;;;;9.18;48.34;94971.38;5032694;28;20721;-76
2022/04/04 07:49:36;;;;;;;7.43;4.15;;;;;;;8.98;48.38;94982.72;5032805;28;20216;-74
2022/04/04 07:52:04;;;;;;;4.80;3.47;;;;;;;7.64;50.59;94993.25;5033030;28;20208;-76
2022/04/04 07:54:31;;;;;;;7.88;4.90;;;;;;;8.19;50.96;94993.97;5032577;28;20212;-76
2022/04/04 07:56:57;;;;;;;10.05;5.40;;;;;;;8.29;49.76;94988.34;5022612;28;20201;-76
2022/04/04 07:59:25;;;;;;;10.20;5.15;;;;;;;9.09;48.49;94990.25;5028872;28;20536;-76
2022/04/04 08:01:53;;;;;;;9.00;5.93;;;;;;;9.49;47.07;94982.19;5022199;28;20205;-77
2022/04/04 08:04:21;;;;;;;9.48;5.40;;;;;;;9.62;45.39;94986.69;5012638;28;20270;-74
2022/04/04 08:06:48;;;;;;;7.78;5.38;;;;;;;9.89;46.93;94975.66;5011718;28;20247;-71
2022/04/04 08:09:15;;;;;;;7.57;4.35;;;;;;;10.28;45.33;94976.69;5015474;28;20196;-72
2022/04/04 08:11:42;;;;;;;8.15;5.60;;;;;;;10.76;43.78;94973.88;5021051;28;20201;-72
2022/04/04 08:14:09;;;;;;;10.05;5.53;;;;;;;11.50;42.83;94972.75;5012002;28;20220;-73
2022/04/04 08:16:36;;;;;;;10.35;5.47;;;;;;;11.60;44.29;94972.41;5023247;28;20211;-72
2022/04/04 08:19:04;;;;;;;7.82;5.32;;;;;;;11.46;43.08;94978.03;5014493;28;20718;-73
2022/04/04 08:21:31;;;;;;;10.55;5.28;;;;;;;9.41;45.80;94980.25;5011698;28;20679;-72
2022/04/04 08:23:58;;;;;;;6.22;4.20;;;;;;;8.10;48.34;94975.00;5018480;28;20211;-71
2022/04/04 08:26:25;;;;;;;8.20;5.60;;;;;;;8.57;48.33;94969.41;5030800;28;20240;-72
2022/04/04 08:28:52;;;;;;;12.80;6.65;;;;;;;8.97;47.21;94971.09;5031284;28;20212;-75
2022/04/04 08:31:19;;;;;;;15.93;7.70;;;;;;;9.06;47.25;94968.44;5032039;28;20201;-76
2022/04/04 08:33:46;;;;;;;11.70;8.15;;;;;;;8.42;48.50;94960.56;5026860;28;20201;-75
2022/04/04 08:36:14;;;;;;;5.40;4.00;;;;;;;7.57;50.38;94972.06;5011364;28;20205;-77
2022/04/04 08:38:41;;;;;;;9.90;5.57;;;;;;;7.41;50.86;94971.53;5016911;28;20455;-76
2022/04/04 08:41:10;;;;;;;11.45;7.95;;;;;;;7.56;49.81;94965.06;5030796;28;20668;-74
2022/04/04 08:43:39;;;;;;;9.95;7.38;;;;;;;8.51;48.46;94952.50;5031281;28;20286;-74
2022/04/04 08:46:07;;;;;;;9.52;5.60;;;;;;;9.35;47.18;94954.44;5031343;28;20235;-75
2022/04/04 08:48:35;;;;;;;8.73;5.63;;;;;;;9.07;48.17;94949.22;5030920;28;20211;-74
2022/04/04 08:51:02;;;;;;;9.13;6.13;;;;;;;10.19;46.41;94935.28;5031071;28;20212;-75
2022/04/04 08:53:30;;;;;;;10.43;5.38;;;;;;;9.87;44.88;94929.16;5031486;28;20208;-75
2022/04/04 08:55:58;;;;;;;9.32;5.28;;;;;;;9.55;46.64;94927.66;5031959;28;20204;-78
2022/04/04 08:58:26;;;;;;;11.45;6.35;;;;;;;9.80;46.28;94928.03;5030465;28;20251;-75
2022/04/04 09:00:52;;;;;;;8.63;4.65;;;;;;;10.15;44.86;94918.06;5030873;28;20243;-74
2022/04/04 09:03:22;;;;;;;10.00;5.40;;;;;;;10.71;44.54;94917.13;5031494;28;20216;-75
2022/04/04 09:05:53;;;;;;;13.60;7.15;;;;;;;10.02;45.79;94919.00;5031485;28;20321;-76
2022/04/04 09:08:21;;;;;;;8.00;5.95;;;;;;;10.02;45.12;94908.16;5031210;28;20215;-75
2022/04/04 09:10:54;;;;;;;9.25;7.25;;;;;;;10.35;44.53;94901.22;5027222;28;20299;-76
2022/04/04 09:13:22;;;;;;;9.90;6.13;;;;;;;10.50;45.45;94897.22;5011079;28;20216;-75
2022/04/04 09:15:50;;;;;;;9.18;6.32;;;;;;;11.16;43.79;94903.94;5019387;28;20211;-73
2022/04/04 09:18:17;;;;;;;10.48;5.82;;;;;;;11.71;43.13;94900.34;5013339;28;20209;-73
2022/04/04 09:20:48;;;;;;;7.28;3.92;;;;;;;9.86;44.95;94903.22;5011357;28;20251;-71
2022/04/04 09:23:15;;;;;;;10.27;8.15;;;;;;;9.54;45.59;94900.94;5012588;28;20296;-71
2022/04/04 09:25:42;;;;;;;13.18;7.20;;;;;;;10.14;44.82;94900.22;5030847;28;20251;-71
2022/04/04 09:28:20;;;;;;;8.98;6.68;;;;;;;9.92;44.86;94901.16;5030699;28;20208;-72
2022/04/04 09:31:05;;;;;;;12.05;8.60;;;;;;;10.77;44.21;94885.25;5030673;28;20215;-71
2022/04/04 09:33:36;;;;;;;10.48;6.68;;;;;;;10.47;44.09;94878.91;5019082;28;20211;-74
2022/04/04 09:36:03;;;;;;;12.82;8.65;;;;;;;10.72;43.44;94872.66;5011034;28;20247;-75
2022/04/04 09:38:30;;;;;;;15.15;8.20;;;;;;;11.85;42.49;94862.94;5021484;28;20206;-74
2022/04/04 09:40:57;;;;;;;8.55;6.00;;;;;;;11.06;42.49;94871.78;5026879;28;20271;-74
2022/04/04 09:43:26;;;;;;;10.45;6.97;;;;;;;10.53;44.46;94874.91;5007856;28;20208;-74
2022/04/04 09:46:10;;;;;;;11.48;6.00;;;;;;;10.67;44.84;94868.19;5028346;28;20223;-76
2022/04/04 09:48:37;;;;;;;11.23;5.97;;;;;;;10.69;45.20;94874.09;5030847;28;20261;-74
2022/04/04 09:51:04;;;;;;;8.63;5.70;;;;;;;11.37;42.88;94860.63;5030463;28;20204;-75
2022/04/04 09:53:32;;;;;;;9.35;6.40;;;;;;;12.09;42.96;94849.50;5030403;28;20209;-74
2022/04/04 09:56:02;;;;;;;10.30;6.05;;;;;;;12.67;40.87;94842.28;5010120;28;20227;-74
2022/04/04 09:58:33;;;;;;;10.00;5.97;;;;;;;10.62;43.87;94856.75;5024557;28;20319;-72
2022/04/04 10:01:01;;;;;;;8.82;5.90;;;;;;;10.13;45.15;94853.41;5028974;28;20294;-73
2022/04/04 10:03:31;;;;;;;11.02;6.45;;;;;;;11.39;44.27;94842.91;5024587;28;20304;-76
2022/04/04 10:06:06;;;;;;;11.88;7.93;;;;;;;12.45;41.98;94829.84;5010589;28;20243;-75
2022/04/04 10:08:34;;;;;;;12.80;7.88;;;;;;;12.98;40.17;94821.97;5010365;28;20277;-74
2022/04/04 10:11:02;;;;;;;9.85;7.78;;;;;;;13.40;39.34;94819.84;5023802;28;20703;-75
2022/04/04 10:13:31;;;;;;;10.23;7.55;;;;;;;13.53;38.77;94803.19;5009812;28;20295;-72
2022/04/04 10:15:58;;;;;;;9.93;6.68;;;;;;;11.88;42.46;94821.56;5010185;28;20208;-73
2022/04/04 10:18:26;;;;;;;10.73;6.63;;;;;;;10.86;43.33;94818.25;5018767;28;20652;-75
2022/04/04 10:20:53;;;;;;;11.60;7.10;;;;;;;10.76;43.56;94816.69;5029901;28;20667;-74
2022/04/04 10:23:22;;;;;;;10.38;7.03;;;;;;;10.70;44.77;94809.84;5028592;28;20295;-74
2022/04/04 10:25:50;;;;;;;24.55;16.75;;;;;;;11.03;43.87;94800.03;5010571;28;20699;-74
2022/04/04 10:28:27;;;;;;;13.15;7.05;;;;;;;11.72;42.88;94798.81;5010143;28;20205;-76
2022/04/04 10:30:58;;;;;;;10.30;7.18;;;;;;;12.14;41.42;94790.69;5010605;28;20204;-74
2022/04/04 10:33:26;;;;;;;12.63;7.68;;;;;;;12.76;40.56;94791.34;5010197;28;20242;-76
2022/04/04 10:36:04;;;;;;;9.25;7.25;;;;;;;12.87;42.19;94785.44;5010461;28;20263;-74
2022/04/04 10:38:32;;;;;;;10.85;7.13;;;;;;;13.37;40.07;94783.25;5010460;28;20232;-73
2022/04/04 10:41:02;;;;;;;9.48;7.43;;;;;;;13.10;40.14;94779.28;5010389;28;20220;-78
2022/04/04 10:43:32;;;;;;;9.13;6.90;;;;;;;13.25;39.27;94779.75;5010950;28;20209;-73
2022/04/04 10:46:02;;;;;;;8.70;7.15;;;;;;;13.06;40.68;94778.34;5013790;28;20209;-75
2022/04/04 10:48:31;;;;;;;11.82;7.30;;;;;;;12.46;41.15;94770.88;5013774;28;20510;-72
2022/04/04 10:51:12;;;;;;;10.63;7.07;;;;;;;12.54;40.98;94772.72;5014280;28;20209;-74
2022/04/04 10:53:44;;;;;;;10.95;7.13;;;;;;;11.93;41.88;94768.97;5032914;28;20236;-76
2022/04/04 10:56:18;;;;;;;13.57;8.00;;;;;;;11.61;42.52;94778.63;5032640;28;20607;-74
2022/04/04 10:58:45;;;;;;;13.32;7.88;;;;;;;11.86;41.34;94766.81;5032890;28;20292;-73
2022/04/04 11:01:17;;;;;;;11.82;7.70;;;;;;;12.09;42.04;94765.34;5015625;28;20216;-73
2022/04/04 11:03:58;;;;;;;10.48;7.13;;;;;;;12.10;41.06;94764.22;5013491;28;20212;-75
2022/04/04 11:09:26;;;;;;;10.48;7.63;;;;;;;10.78;43.45;94773.03;5018247;28;20559;-73
2022/04/04 11:12:08;;;;;;;9.05;6.72;;;;;;;11.66;42.27;94759.44;5020092;28;20296;-75
2022/04/04 11:14:54;;;;;;;9.98;7.20;;;;;;;12.33;41.51;94759.19;5013036;28;20208;-77
2022/04/04 11:17:38;;;;;;;11.50;6.95;;;;;;;12.72;40.93;94755.06;5013507;28;20217;-75
2022/04/04 11:20:14;;;;;;;10.25;6.50;;;;;;;13.27;39.16;94751.06;5013340;28;20447;-73
2022/04/04 11:22:45;;;;;;;12.70;6.85;;;;;;;12.66;40.70;94756.44;5016026;28;20231;-78
2022/04/04 11:25:17;;;;;;;12.13;6.78;;;;;;;12.53;40.43;94749.41;5015228;28;20193;-76
2022/04/04 11:27:48;;;;;;;10.02;7.03;;;;;;;11.80;42.59;94753.75;5011965;28;20233;-74
2022/04/04 11:30:15;;;;;;;14.02;7.53;;;;;;;11.61;42.16;94741.44;5012948;28;20201;-75
2022/04/04 11:32:49;;;;;;;12.65;8.10;;;;;;;11.17;42.98;94747.47;5012965;28;20228;-76
2022/04/04 11:35:22;;;;;;;9.52;7.18;;;;;;;11.53;43.08;94744.22;5012754;28;20206;-75
2022/04/04 11:37:50;;;;;;;8.82;6.70;;;;;;;11.78;41.93;94724.25;5013276;28;20213;-73
2022/04/04 11:40:19;;;;;;;9.52;6.97;;;;;;;12.29;42.56;94722.19;5013314;28;20201;-74
2022/04/04 11:42:50;;;;;;;9.00;6.43;;;;;;;12.16;41.33;94723.28;5013244;28;20686;-75
2022/04/04 11:45:18;;;;;;;8.48;6.75;;;;;;;12.81;40.16;94714.22;5012208;28;20245;-75